Hauptseite
METAR-TAF:

METAR-TAF

Flughäfen :

Ivujivik, Québec, Kanada

Breite: 62-25N, Länge: 077-57W, Höhe: 42 m

Beobachtung

Neuester Wetterbericht von vor 1 Stunde und 18 Minuten, um 21:00 UTC
Wind 15 kt aus Süd/Südost
Temperatur -17°C
Luftfeuchtigkeit 77%
Luftdruck 1023 hPa
Sichtweite: 24.1 km
Geschlossene Wolkendecke in der Höhe von 3000 ft
Schnee leicht

METAR: CYIK 092100Z 16015KT 15SM -SN OVC030 M17/M20 A3022 RMK SC8 SLP242

Zeit: 17:18 (22:18 UTC)

Prognose

Neuester Wetterbericht von vor 7 Stunden und 40 Minuten, um 14:38 UTC
Gültige Prognose vom 09 um 15 UTC bis 09 um 22 UTC
Wind 12 kt aus Süd/Südost
Sichtweite: 10 km
Geschlossene Wolkendecke in der Höhe von 2500 ft
Zeitweise
vom 09 um 15 UTC bis 09 um 22 UTC
Sichtweite: 10 km
Geschlossene Wolkendecke in der Höhe von 2000 ft
Schnee leicht

TAF: CYIK 091438Z 0915/0922 15012KT P6SM OVC025 TEMPO 0915/0922 P6SM -SN OVC020 RMK NXT FCST WILL BE ISSUED AT 101445Z

Wetterbeobachtungen und Prognosen von mehr als 4000 Flughäfen (METAR und TAF Bericht).

Die verfügbaren Stationen werden durch gelbe und rote Markierungen auf der Karte dargestellt.

Führen Sie die Maus auf sie, um den Namen der Station zu sehen.

Darauf klicken, um die Beobachtung von Wetterbeobachtungen und Prognosen zu sehen.

Um die Karte zu ändern : klicken Sie auf den grünen Tasten mit einem schwarzen Kreuz Zum Vergrößern, auf den grünen Button mit einem Gedankenstrich zu verkleinern, oder auf die grünen Pfeile für benachbarte Karten.


METAR-TAF: